createdAt,value
2024-02-04T00:00:36.121Z,96000.00
2024-02-04T00:01:35.516Z,95998.00
2024-02-04T00:02:35.374Z,96000.00
2024-02-04T00:06:54.664Z,96000.00
2024-02-04T00:07:55.008Z,95998.00
2024-02-04T00:08:54.596Z,95997.00
2024-02-04T00:22:23.727Z,96000.00
2024-02-04T00:32:25.363Z,95998.00
2024-02-04T00:35:08.327Z,96006.00
2024-02-04T00:36:07.481Z,96004.00
2024-02-04T00:37:07.237Z,96004.00
2024-02-04T00:38:07.205Z,96002.00
2024-02-04T00:39:08.193Z,96002.00
2024-02-04T00:40:07.668Z,96002.00
2024-02-04T00:50:14.236Z,96042.00
2024-02-04T00:52:34.708Z,96053.00
2024-02-04T00:53:34.953Z,96050.00
2024-02-04T00:58:00.244Z,96044.00
2024-02-04T00:59:00.750Z,96048.00
2024-02-04T01:04:50.780Z,96053.00
2024-02-04T01:05:47.398Z,96053.00
2024-02-04T01:06:56.320Z,96057.00
2024-02-04T01:07:46.802Z,96052.00
2024-02-04T01:08:45.785Z,96053.00
2024-02-04T01:09:45.838Z,96050.00
2024-02-04T01:10:45.809Z,96055.00
2024-02-04T01:11:45.819Z,96059.00
2024-02-04T01:12:45.842Z,96061.00
2024-02-04T01:13:45.709Z,96061.00
2024-02-04T01:14:45.740Z,96055.00
2024-02-04T01:15:46.097Z,96050.00
2024-02-04T01:24:46.354Z,96044.00
2024-02-04T01:25:44.177Z,96052.00
2024-02-04T01:26:43.250Z,96050.00
2024-02-04T01:30:10.106Z,96046.00
2024-02-04T01:32:12.838Z,96044.00
2024-02-04T01:33:09.400Z,96046.00
2024-02-04T01:34:10.168Z,96046.00
2024-02-04T01:39:24.736Z,96026.00
2024-02-04T01:40:22.810Z,96018.00
2024-02-04T01:41:23.707Z,96014.00
2024-02-04T01:51:05.864Z,96008.00
2024-02-04T02:09:52.594Z,95979.00
2024-02-04T02:13:31.600Z,95969.00
2024-02-04T02:25:43.467Z,95973.00
2024-02-04T02:28:03.901Z,95979.00
2024-02-04T02:38:08.643Z,95985.00
2024-02-04T02:44:03.386Z,95989.00
2024-02-04T02:45:02.005Z,95989.00
2024-02-04T02:49:10.936Z,95985.00
2024-02-04T02:50:10.898Z,95987.00
2024-02-04T02:51:11.053Z,95987.00
2024-02-04T02:52:11.698Z,95981.00
2024-02-04T02:53:10.699Z,95981.00
2024-02-04T02:54:10.767Z,95973.00
2024-02-04T02:55:10.852Z,95981.00
2024-02-04T02:59:32.335Z,95969.00
2024-02-04T03:16:26.938Z,95973.00
2024-02-04T03:17:23.685Z,95977.00
2024-02-04T03:18:22.840Z,95981.00
2024-02-04T03:19:22.860Z,95977.00
2024-02-04T03:20:22.926Z,95967.00
2024-02-04T03:22:47.834Z,95969.00
2024-02-04T03:31:20.440Z,95981.00
2024-02-04T03:34:54.692Z,95985.00
2024-02-04T03:35:54.792Z,95989.00
2024-02-04T03:36:55.266Z,95987.00
2024-02-04T04:10:16.038Z,96006.00
2024-02-04T04:11:15.103Z,96006.00
2024-02-04T04:12:15.110Z,96002.00
2024-02-04T04:13:16.143Z,96006.00
2024-02-04T04:19:08.564Z,96000.00
2024-02-04T04:20:08.389Z,96000.00
2024-02-04T04:21:10.060Z,95998.00
2024-02-04T04:24:15.614Z,96006.00
2024-02-04T04:26:36.991Z,96010.00
2024-02-04T04:27:36.730Z,96012.00
2024-02-04T04:28:36.100Z,96012.00
2024-02-04T04:39:06.512Z,96016.00
2024-02-04T04:40:06.623Z,96010.00
2024-02-04T04:41:07.678Z,96008.00
2024-02-04T04:45:36.629Z,96010.00
2024-02-04T04:46:35.698Z,96004.00
2024-02-04T04:47:35.606Z,96002.00
2024-02-04T04:51:07.284Z,96002.00
2024-02-04T04:52:07.339Z,96002.00
2024-02-04T05:03:20.550Z,96002.00
2024-02-04T05:05:48.810Z,95995.00
2024-02-04T05:08:25.832Z,96004.00
2024-02-04T05:13:32.515Z,96008.00
2024-02-04T05:17:02.248Z,96016.00
2024-02-04T05:19:22.206Z,96014.00
2024-02-04T05:36:39.213Z,96010.00
2024-02-04T05:37:50.623Z,96006.00
2024-02-04T05:38:39.442Z,96012.00
2024-02-04T05:49:57.836Z,96014.00
2024-02-04T05:57:06.292Z,96044.00
2024-02-04T06:00:08.783Z,96036.00
2024-02-04T06:14:05.821Z,96053.00
2024-02-04T06:23:28.175Z,96044.00
2024-02-04T06:27:16.783Z,96036.00
2024-02-04T06:34:07.370Z,96032.00
2024-02-04T06:35:06.120Z,96036.00
2024-02-04T06:36:04.832Z,96034.00
2024-02-04T06:40:23.585Z,96032.00
2024-02-04T06:41:23.616Z,96036.00
2024-02-04T06:44:25.316Z,96034.00
2024-02-04T06:51:20.221Z,96040.00
2024-02-04T06:55:52.799Z,96038.00
2024-02-04T06:56:52.712Z,96032.00
2024-02-04T06:57:52.496Z,96036.00
2024-02-04T07:11:10.689Z,96055.00
2024-02-04T07:27:37.353Z,96069.00
2024-02-04T07:32:02.797Z,96063.00
2024-02-04T07:33:02.582Z,96067.00
2024-02-04T07:44:24.800Z,96075.00
2024-02-04T07:46:45.133Z,96065.00
2024-02-04T07:50:49.661Z,96065.00
2024-02-04T07:54:02.474Z,96065.00
2024-02-04T07:55:01.560Z,96063.00
2024-02-04T07:58:48.962Z,96057.00
2024-02-04T07:59:48.737Z,96055.00
2024-02-04T08:00:48.704Z,96059.00
2024-02-04T08:01:48.735Z,96061.00
2024-02-04T08:07:34.564Z,96067.00
2024-02-04T08:09:53.850Z,96061.00
2024-02-04T08:16:01.331Z,96055.00
2024-02-04T08:17:01.309Z,96055.00
2024-02-04T08:26:24.823Z,96065.00
2024-02-04T08:27:24.476Z,96059.00
2024-02-04T08:29:44.285Z,96050.00
2024-02-04T08:30:43.877Z,96053.00
2024-02-04T08:34:43.411Z,96057.00
2024-02-04T08:35:43.066Z,96053.00
2024-02-04T08:36:43.823Z,96052.00
2024-02-04T08:37:43.123Z,96055.00
2024-02-04T08:38:42.873Z,96057.00
2024-02-04T08:41:03.982Z,96065.00
2024-02-04T08:49:59.664Z,96059.00
2024-02-04T08:50:58.993Z,96061.00
2024-02-04T08:52:00.650Z,96057.00
2024-02-04T08:56:31.739Z,96063.00
2024-02-04T08:58:50.350Z,96061.00
2024-02-04T08:59:50.655Z,96063.00
2024-02-04T09:00:50.258Z,96061.00
2024-02-04T09:01:50.551Z,96053.00
2024-02-04T09:02:50.661Z,96046.00
2024-02-04T09:06:17.415Z,96053.00
2024-02-04T09:07:17.496Z,96048.00
2024-02-04T09:09:52.698Z,96040.00
2024-02-04T09:10:59.578Z,96034.00
2024-02-04T09:11:52.018Z,96028.00
2024-02-04T09:12:52.216Z,96028.00
2024-02-04T09:13:52.313Z,96028.00
2024-02-04T09:14:51.607Z,96032.00
2024-02-04T09:17:11.564Z,96026.00
2024-02-04T09:18:12.030Z,96024.00
2024-02-04T09:19:12.868Z,96018.00
2024-02-04T09:20:11.545Z,96014.00
2024-02-04T09:21:11.532Z,96014.00
2024-02-04T09:22:11.590Z,96014.00
2024-02-04T09:23:11.427Z,96010.00
2024-02-04T09:24:11.393Z,96006.00
2024-02-04T09:25:11.535Z,96008.00
2024-02-04T09:26:11.677Z,96004.00
2024-02-04T09:27:11.601Z,96008.00
2024-02-04T09:28:11.488Z,96008.00
2024-02-04T09:29:11.462Z,96006.00
2024-02-04T09:30:11.387Z,96008.00
2024-02-04T09:31:11.609Z,96014.00
2024-02-04T09:32:11.487Z,95997.00
2024-02-04T09:33:11.664Z,95991.00
2024-02-04T09:34:11.589Z,95987.00
2024-02-04T09:35:11.537Z,95987.00
2024-02-04T09:36:11.627Z,95983.00
2024-02-04T09:37:11.916Z,95983.00
2024-02-04T09:38:14.303Z,95987.00
2024-02-04T09:39:11.303Z,95997.00
2024-02-04T09:40:11.571Z,95991.00
2024-02-04T09:41:11.307Z,95987.00
2024-02-04T09:42:11.291Z,95967.00
2024-02-04T09:43:11.398Z,95963.00
2024-02-04T09:44:11.336Z,95963.00
2024-02-04T09:45:11.303Z,95969.00
2024-02-04T09:46:11.279Z,95981.00
2024-02-04T09:47:11.210Z,95977.00
2024-02-04T09:48:11.428Z,95967.00
2024-02-04T09:49:11.490Z,95965.00
2024-02-04T09:50:11.362Z,95969.00
2024-02-04T09:51:11.512Z,95973.00
2024-02-04T09:52:11.431Z,95967.00
2024-02-04T09:53:11.370Z,95967.00
2024-02-04T09:54:11.453Z,95959.00
2024-02-04T09:55:11.351Z,95959.00
2024-02-04T09:56:11.190Z,95959.00
2024-02-04T09:57:11.158Z,95951.00
2024-02-04T09:58:11.372Z,95953.00
2024-02-04T09:59:11.880Z,95949.00
2024-02-04T10:00:11.423Z,95947.00
2024-02-04T10:01:11.201Z,95942.00
2024-02-04T10:02:11.500Z,95947.00
2024-02-04T10:03:11.228Z,95961.00
2024-02-04T10:04:11.305Z,95969.00
2024-02-04T10:05:11.466Z,95967.00
2024-02-04T10:06:11.445Z,95955.00
2024-02-04T10:07:11.379Z,95940.00
2024-02-04T10:08:11.287Z,95946.00
2024-02-04T10:09:11.256Z,95957.00
2024-02-04T10:10:11.294Z,95961.00
2024-02-04T10:11:11.458Z,95949.00
2024-02-04T10:12:11.774Z,95944.00
2024-02-04T10:13:11.207Z,95944.00
2024-02-04T10:14:11.280Z,95946.00
2024-02-04T10:15:11.310Z,95953.00
2024-02-04T10:16:11.132Z,95951.00
2024-02-04T10:17:11.463Z,95947.00
2024-02-04T10:18:11.167Z,95938.00
2024-02-04T10:19:11.113Z,95932.00
2024-02-04T10:20:11.065Z,95926.00
2024-02-04T10:21:11.015Z,95936.00
2024-02-04T10:22:11.151Z,95936.00
2024-02-04T10:23:11.027Z,95936.00
2024-02-04T10:24:11.358Z,95932.00
2024-02-04T10:25:11.880Z,95922.00
2024-02-04T10:26:11.320Z,95920.00
2024-02-04T10:27:15.993Z,95924.00
2024-02-04T10:28:12.035Z,95928.00
2024-02-04T10:29:11.206Z,95922.00
2024-02-04T10:30:11.931Z,95914.00
2024-02-04T10:31:11.079Z,95910.00
2024-02-04T10:32:11.092Z,95904.00
2024-02-04T10:33:11.065Z,95908.00
2024-02-04T10:34:11.057Z,95902.00
2024-02-04T10:35:10.921Z,95902.00
2024-02-04T10:36:10.989Z,95900.00
2024-02-04T10:37:11.056Z,95904.00
2024-02-04T10:38:10.972Z,95906.00
2024-02-04T10:39:11.873Z,95904.00
2024-02-04T10:40:11.063Z,95902.00
2024-02-04T10:41:10.963Z,95902.00
2024-02-04T10:42:10.898Z,95902.00
2024-02-04T10:44:31.146Z,95887.00
2024-02-04T10:45:30.631Z,95887.00
2024-02-04T10:46:30.349Z,95889.00
2024-02-04T10:47:30.333Z,95896.00
2024-02-04T10:48:30.462Z,95887.00
2024-02-04T10:49:30.449Z,95889.00
2024-02-04T10:50:30.321Z,95879.00
2024-02-04T10:51:30.502Z,95877.00
2024-02-04T10:52:30.479Z,95873.00
2024-02-04T10:53:30.402Z,95875.00
2024-02-04T10:54:30.551Z,95871.00
2024-02-04T10:57:39.181Z,95865.00
2024-02-04T10:58:37.590Z,95861.00
2024-02-04T10:59:38.425Z,95859.00
2024-02-04T11:00:38.063Z,95859.00
2024-02-04T11:01:38.401Z,95861.00
2024-02-04T11:02:37.615Z,95859.00
2024-02-04T11:03:37.837Z,95853.00
2024-02-04T11:04:37.930Z,95855.00
2024-02-04T11:05:37.654Z,95859.00
2024-02-04T11:06:37.637Z,95857.00
2024-02-04T11:07:37.590Z,95857.00
2024-02-04T11:08:37.594Z,95855.00
2024-02-04T11:09:37.806Z,95847.00
2024-02-04T11:10:38.622Z,95838.00
2024-02-04T11:11:37.582Z,95838.00
2024-02-04T11:14:55.591Z,95843.00
2024-02-04T11:15:55.257Z,95841.00
2024-02-04T11:16:55.026Z,95834.00
2024-02-04T11:17:55.339Z,95828.00
2024-02-04T11:18:55.921Z,95820.00
2024-02-04T11:19:55.225Z,95814.00
2024-02-04T11:20:55.053Z,95814.00
2024-02-04T11:21:55.007Z,95818.00
2024-02-04T11:22:54.982Z,95814.00
2024-02-04T11:23:54.973Z,95810.00
2024-02-04T11:24:55.036Z,95808.00
2024-02-04T11:25:58.146Z,95810.00
2024-02-04T11:26:54.994Z,95812.00
2024-02-04T11:27:55.072Z,95812.00
2024-02-04T11:28:55.051Z,95808.00
2024-02-04T11:29:55.071Z,95804.00
2024-02-04T11:30:55.119Z,95798.00
2024-02-04T11:31:57.778Z,95802.00
2024-02-04T11:32:55.151Z,95802.00
2024-02-04T11:33:55.254Z,95794.00
2024-02-04T11:34:55.059Z,95788.00
2024-02-04T11:35:55.093Z,95785.00
2024-02-04T11:36:54.929Z,95787.00
2024-02-04T11:37:56.750Z,95792.00
2024-02-04T11:38:55.278Z,95790.00
2024-02-04T11:39:55.092Z,95790.00
2024-02-04T11:40:54.912Z,95787.00
2024-02-04T11:41:55.151Z,95785.00
2024-02-04T11:42:55.101Z,95790.00
2024-02-04T11:43:58.356Z,95790.00
2024-02-04T11:44:55.946Z,95787.00
2024-02-04T11:45:55.931Z,95794.00
2024-02-04T11:46:54.878Z,95792.00
2024-02-04T11:47:54.908Z,95790.00
2024-02-04T11:48:55.119Z,95790.00
2024-02-04T11:49:55.023Z,95788.00
2024-02-04T11:50:55.084Z,95788.00
2024-02-04T11:51:55.102Z,95785.00
2024-02-04T11:52:55.021Z,95781.00
2024-02-04T11:53:54.812Z,95779.00
2024-02-04T11:54:54.908Z,95777.00
2024-02-04T11:55:54.974Z,95775.00
2024-02-04T11:56:55.265Z,95775.00
2024-02-04T11:57:55.119Z,95767.00
2024-02-04T11:58:54.817Z,95759.00
2024-02-04T11:59:54.828Z,95755.00
2024-02-04T12:00:54.972Z,95759.00
2024-02-04T12:01:54.946Z,95759.00
2024-02-04T12:02:54.809Z,95755.00
2024-02-04T12:03:55.028Z,95739.00
2024-02-04T12:04:54.967Z,95745.00
2024-02-04T12:05:54.880Z,95741.00
2024-02-04T12:06:54.995Z,95737.00
2024-02-04T12:07:55.407Z,95735.00
2024-02-04T12:08:55.299Z,95728.00
2024-02-04T12:09:55.131Z,95726.00
2024-02-04T12:10:55.082Z,95722.00
2024-02-04T12:11:55.168Z,95712.00
2024-02-04T12:12:55.297Z,95698.00
2024-02-04T12:13:55.193Z,95702.00
2024-02-04T12:14:55.141Z,95708.00
2024-02-04T12:15:55.299Z,95710.00
2024-02-04T12:21:19.205Z,95700.00
2024-02-04T12:22:19.705Z,95692.00
2024-02-04T12:23:19.011Z,95694.00
2024-02-04T12:24:18.740Z,95698.00
2024-02-04T12:25:18.655Z,95704.00
2024-02-04T12:26:18.734Z,95710.00
2024-02-04T12:27:18.659Z,95702.00
2024-02-04T12:28:18.604Z,95694.00
2024-02-04T12:29:18.586Z,95690.00
2024-02-04T12:30:18.664Z,95686.00
2024-02-04T12:31:18.796Z,95679.00
2024-02-04T12:32:18.599Z,95681.00
2024-02-04T12:33:18.666Z,95669.00
2024-02-04T12:34:18.592Z,95661.00
2024-02-04T12:35:18.616Z,95649.00
2024-02-04T12:36:18.617Z,95663.00
2024-02-04T12:37:18.744Z,95669.00
2024-02-04T12:38:18.553Z,95681.00
2024-02-04T12:39:18.552Z,95677.00
2024-02-04T12:40:18.659Z,95661.00
2024-02-04T12:41:18.535Z,95653.00
2024-02-04T12:42:18.625Z,95655.00
2024-02-04T12:43:18.668Z,95655.00
2024-02-04T12:44:18.546Z,95653.00
2024-02-04T12:45:18.661Z,95657.00
2024-02-04T12:46:19.049Z,95667.00
2024-02-04T12:47:18.681Z,95657.00
2024-02-04T12:48:18.674Z,95649.00
2024-02-04T12:49:18.795Z,95651.00
2024-02-04T12:50:18.727Z,95657.00
2024-02-04T12:51:18.758Z,95655.00
2024-02-04T12:52:18.810Z,95651.00
2024-02-04T12:53:18.836Z,95651.00
2024-02-04T12:54:18.813Z,95653.00
2024-02-04T12:55:19.000Z,95649.00
2024-02-04T12:56:18.868Z,95641.00
2024-02-04T12:57:18.951Z,95643.00
2024-02-04T12:58:19.044Z,95643.00
2024-02-04T12:59:18.961Z,95625.00
2024-02-04T13:00:19.077Z,95620.00
2024-02-04T13:01:19.344Z,95616.00
2024-02-04T13:02:19.074Z,95614.00
2024-02-04T13:03:19.329Z,95612.00
2024-02-04T13:04:19.213Z,95610.00
2024-02-04T13:05:19.330Z,95610.00
2024-02-04T13:06:19.342Z,95614.00
2024-02-04T13:07:19.649Z,95624.00
2024-02-04T13:08:19.330Z,95620.00
2024-02-04T13:09:19.343Z,95602.00
2024-02-04T13:10:19.436Z,95602.00
2024-02-04T13:11:19.446Z,95608.00
2024-02-04T13:12:19.457Z,95610.00
2024-02-04T13:13:19.596Z,95616.00
2024-02-04T13:14:19.461Z,95614.00
2024-02-04T13:15:19.625Z,95600.00
2024-02-04T13:16:19.746Z,95598.00
2024-02-04T13:17:19.671Z,95600.00
2024-02-04T13:18:19.716Z,95608.00
2024-02-04T13:19:19.725Z,95598.00
2024-02-04T13:20:19.729Z,95594.00
2024-02-04T13:21:19.733Z,95606.00
2024-02-04T13:22:19.771Z,95596.00
2024-02-04T13:23:19.964Z,95586.00
2024-02-04T13:24:19.815Z,95592.00
2024-02-04T13:25:20.035Z,95594.00
2024-02-04T13:26:19.966Z,95592.00
2024-02-04T13:27:19.854Z,95590.00
2024-02-04T13:28:20.071Z,95594.00
2024-02-04T13:29:19.913Z,95588.00
2024-02-04T13:30:20.030Z,95592.00
2024-02-04T13:31:20.479Z,95604.00
2024-02-04T13:32:20.148Z,95608.00
2024-02-04T13:33:21.156Z,95610.00
2024-02-04T13:34:22.120Z,95608.00
2024-02-04T13:35:20.980Z,95614.00
2024-02-04T13:36:20.227Z,95612.00
2024-02-04T13:37:20.264Z,95604.00
2024-02-04T13:38:20.225Z,95602.00
2024-02-04T13:39:20.150Z,95614.00
2024-02-04T13:40:20.524Z,95620.00
2024-02-04T13:41:20.383Z,95620.00
2024-02-04T13:42:20.267Z,95602.00
2024-02-04T13:43:20.459Z,95602.00
2024-02-04T13:44:20.476Z,95604.00
2024-02-04T13:45:20.406Z,95610.00
2024-02-04T13:46:20.333Z,95610.00
2024-02-04T13:47:20.409Z,95610.00
2024-02-04T13:48:20.606Z,95610.00
2024-02-04T13:49:20.583Z,95600.00
2024-02-04T13:50:20.612Z,95594.00
2024-02-04T13:51:32.421Z,95592.00
2024-02-04T13:52:21.634Z,95590.00
2024-02-04T13:53:20.548Z,95590.00
2024-02-04T13:54:20.680Z,95588.00
2024-02-04T13:55:20.620Z,95592.00
2024-02-04T13:56:20.596Z,95600.00
2024-02-04T13:57:20.487Z,95600.00
2024-02-04T13:58:20.719Z,95598.00
2024-02-04T13:59:20.485Z,95600.00
2024-02-04T14:00:20.502Z,95612.00
2024-02-04T14:01:20.596Z,95620.00
2024-02-04T14:02:20.547Z,95612.00
2024-02-04T14:03:20.547Z,95594.00
2024-02-04T14:04:20.634Z,95592.00
2024-02-04T14:05:20.470Z,95598.00
2024-02-04T14:06:20.615Z,95606.00
2024-02-04T14:07:20.688Z,95608.00
2024-02-04T14:08:20.598Z,95612.00
2024-02-04T14:09:20.568Z,95602.00
2024-02-04T14:10:20.641Z,95596.00
2024-02-04T14:11:20.620Z,95600.00
2024-02-04T14:12:20.592Z,95600.00
2024-02-04T14:13:20.606Z,95602.00
2024-02-04T14:14:20.599Z,95606.00
2024-02-04T14:15:20.727Z,95616.00
2024-02-04T14:16:21.094Z,95604.00
2024-02-04T14:17:20.737Z,95618.00
2024-02-04T14:18:20.826Z,95622.00
2024-02-04T14:19:20.824Z,95612.00
2024-02-04T14:20:21.387Z,95610.00
2024-02-04T14:21:20.842Z,95608.00
2024-02-04T14:22:21.030Z,95612.00
2024-02-04T14:23:21.094Z,95614.00
2024-02-04T14:24:21.097Z,95620.00
2024-02-04T14:25:21.054Z,95612.00
2024-02-04T14:26:20.986Z,95612.00
2024-02-04T14:27:21.015Z,95610.00
2024-02-04T14:28:21.217Z,95614.00
2024-02-04T14:29:21.117Z,95622.00
2024-02-04T14:30:21.258Z,95618.00
2024-02-04T14:31:21.223Z,95614.00
2024-02-04T14:32:21.117Z,95612.00
2024-02-04T14:33:21.164Z,95616.00
2024-02-04T14:34:21.345Z,95610.00
2024-02-04T14:35:21.271Z,95602.00
2024-02-04T14:36:21.287Z,95610.00
2024-02-04T14:37:21.440Z,95614.00
2024-02-04T14:38:21.301Z,95614.00
2024-02-04T14:39:21.846Z,95606.00
2024-02-04T14:40:21.420Z,95608.00
2024-02-04T14:41:21.431Z,95604.00
2024-02-04T14:42:21.539Z,95618.00
2024-02-04T14:43:21.557Z,95610.00
2024-02-04T14:44:21.493Z,95610.00
2024-02-04T14:45:21.853Z,95604.00
2024-02-04T14:46:21.603Z,95608.00
2024-02-04T14:47:21.531Z,95598.00
2024-02-04T14:48:21.741Z,95596.00
2024-02-04T14:49:21.754Z,95598.00
2024-02-04T14:50:21.593Z,95598.00
2024-02-04T14:51:21.601Z,95604.00
2024-02-04T14:52:21.768Z,95604.00
2024-02-04T14:53:21.625Z,95586.00
2024-02-04T14:54:21.722Z,95602.00
2024-02-04T14:55:22.503Z,95608.00
2024-02-04T14:56:21.804Z,95608.00
2024-02-04T14:57:21.754Z,95596.00
2024-02-04T14:58:22.863Z,95612.00
2024-02-04T14:59:23.264Z,95604.00
2024-02-04T15:00:21.924Z,95612.00
2024-02-04T15:01:22.541Z,95624.00
2024-02-04T15:02:22.436Z,95618.00
2024-02-04T15:03:21.942Z,95618.00
2024-02-04T15:04:22.153Z,95639.00
2024-02-04T15:05:22.077Z,95645.00
2024-02-04T15:06:22.158Z,95639.00
2024-02-04T15:07:22.392Z,95639.00
2024-02-04T15:08:22.173Z,95643.00
2024-02-04T15:09:22.096Z,95651.00
2024-02-04T15:10:22.261Z,95653.00
2024-02-04T15:11:22.168Z,95653.00
2024-02-04T15:12:22.230Z,95651.00
2024-02-04T15:13:22.262Z,95639.00
2024-02-04T15:14:22.274Z,95641.00
2024-02-04T15:15:22.250Z,95627.00
2024-02-04T15:16:22.357Z,95645.00
2024-02-04T15:17:22.357Z,95643.00
2024-02-04T15:18:22.366Z,95643.00
2024-02-04T15:19:26.014Z,95631.00
2024-02-04T15:20:22.705Z,95627.00
2024-02-04T15:21:24.528Z,95624.00
2024-02-04T15:22:22.563Z,95627.00
2024-02-04T15:23:22.491Z,95653.00
2024-02-04T15:24:22.407Z,95647.00
2024-02-04T15:25:22.468Z,95629.00
2024-02-04T15:26:22.335Z,95639.00
2024-02-04T15:27:22.413Z,95625.00
2024-02-04T15:28:22.523Z,95622.00
2024-02-04T15:29:22.454Z,95614.00
2024-02-04T15:30:22.591Z,95622.00
2024-02-04T15:31:22.818Z,95629.00
2024-02-04T15:32:22.529Z,95627.00
2024-02-04T15:33:22.714Z,95627.00
2024-02-04T15:34:22.874Z,95620.00
2024-02-04T15:35:22.511Z,95616.00
2024-02-04T15:36:23.540Z,95616.00
2024-02-04T15:37:22.611Z,95614.00
2024-02-04T15:38:22.617Z,95625.00
2024-02-04T15:39:23.155Z,95624.00
2024-02-04T15:40:22.855Z,95625.00
2024-02-04T15:41:22.739Z,95622.00
2024-02-04T15:42:22.761Z,95641.00
2024-02-04T15:43:23.840Z,95625.00
2024-02-04T15:44:22.876Z,95625.00
2024-02-04T15:45:22.879Z,95627.00
2024-02-04T15:46:23.001Z,95643.00
2024-02-04T15:47:22.989Z,95629.00
2024-02-04T15:48:23.129Z,95631.00
2024-02-04T15:49:23.256Z,95643.00
2024-02-04T15:50:23.241Z,95639.00
2024-02-04T15:51:23.327Z,95629.00
2024-02-04T15:52:23.232Z,95629.00
2024-02-04T15:53:23.202Z,95643.00
2024-02-04T15:54:23.232Z,95649.00
2024-02-04T15:55:23.408Z,95641.00
2024-02-04T15:56:23.342Z,95643.00
2024-02-04T15:57:23.372Z,95631.00
2024-02-04T15:58:23.400Z,95625.00
2024-02-04T15:59:23.374Z,95649.00
2024-02-04T16:00:23.528Z,95643.00
2024-02-04T16:01:23.551Z,95631.00
2024-02-04T16:02:23.600Z,95639.00
2024-02-04T16:03:23.602Z,95627.00
2024-02-04T16:04:23.789Z,95649.00
2024-02-04T16:05:23.586Z,95659.00
2024-02-04T16:06:23.738Z,95665.00
2024-02-04T16:07:23.822Z,95655.00
2024-02-04T16:08:23.646Z,95651.00
2024-02-04T16:09:23.653Z,95659.00
2024-02-04T16:10:23.702Z,95657.00
2024-02-04T16:11:23.731Z,95661.00
2024-02-04T16:12:23.703Z,95679.00
2024-02-04T16:13:23.914Z,95671.00
2024-02-04T16:14:23.788Z,95665.00
2024-02-04T16:15:23.901Z,95679.00
2024-02-04T16:16:24.045Z,95681.00
2024-02-04T16:17:23.914Z,95683.00
2024-02-04T16:18:24.128Z,95677.00
2024-02-04T16:19:24.040Z,95677.00
2024-02-04T16:20:24.317Z,95679.00
2024-02-04T16:21:24.051Z,95685.00
2024-02-04T16:22:24.267Z,95685.00
2024-02-04T16:23:24.339Z,95679.00
2024-02-04T16:24:24.167Z,95671.00
2024-02-04T16:25:24.320Z,95679.00
2024-02-04T16:26:24.578Z,95681.00
2024-02-04T16:27:24.378Z,95685.00
2024-02-04T16:28:24.410Z,95688.00
2024-02-04T16:29:24.388Z,95690.00
2024-02-04T16:30:25.653Z,95696.00
2024-02-04T16:31:24.541Z,95700.00
2024-02-04T16:32:25.539Z,95702.00
2024-02-04T16:33:24.611Z,95698.00
2024-02-04T16:34:24.827Z,95694.00
2024-02-04T16:35:24.551Z,95690.00
2024-02-04T16:36:24.594Z,95692.00
2024-02-04T16:37:25.695Z,95686.00
2024-02-04T16:38:24.625Z,95681.00
2024-02-04T16:39:24.665Z,95681.00
2024-02-04T16:40:24.919Z,95675.00
2024-02-04T16:41:24.813Z,95690.00
2024-02-04T16:42:24.831Z,95690.00
2024-02-04T16:43:24.820Z,95694.00
2024-02-04T16:44:24.918Z,95698.00
2024-02-04T16:45:24.960Z,95696.00
2024-02-04T16:46:24.990Z,95694.00
2024-02-04T16:47:25.051Z,95698.00
2024-02-04T16:48:24.966Z,95706.00
2024-02-04T16:49:27.747Z,95718.00
2024-02-04T16:50:25.067Z,95720.00
2024-02-04T16:51:24.964Z,95710.00
2024-02-04T16:52:25.884Z,95730.00
2024-02-04T16:53:25.023Z,95728.00
2024-02-04T16:54:28.152Z,95720.00
2024-02-04T16:55:25.125Z,95714.00
2024-02-04T16:56:24.926Z,95722.00
2024-02-04T16:57:25.002Z,95720.00
2024-02-04T16:58:25.078Z,95716.00
2024-02-04T16:59:24.956Z,95726.00
2024-02-04T17:00:24.921Z,95726.00
2024-02-04T17:01:24.961Z,95720.00
2024-02-04T17:02:24.931Z,95722.00
2024-02-04T17:03:24.929Z,95718.00
2024-02-04T17:04:24.977Z,95704.00
2024-02-04T17:05:26.485Z,95694.00
2024-02-04T17:06:25.013Z,95716.00
2024-02-04T17:07:24.969Z,95726.00
2024-02-04T17:08:25.183Z,95716.00
2024-02-04T17:09:24.872Z,95718.00
2024-02-04T17:10:25.035Z,95726.00
2024-02-04T17:11:25.087Z,95724.00
2024-02-04T17:12:24.925Z,95730.00
2024-02-04T17:13:24.877Z,95739.00
2024-02-04T17:14:24.802Z,95743.00
2024-02-04T17:15:24.927Z,95739.00
2024-02-04T17:16:24.831Z,95739.00
2024-02-04T17:17:24.942Z,95728.00
2024-02-04T17:18:25.035Z,95726.00
2024-02-04T17:19:24.884Z,95726.00
2024-02-04T17:20:24.838Z,95726.00
2024-02-04T17:21:24.893Z,95733.00
2024-02-04T17:22:24.974Z,95733.00
2024-02-04T17:23:24.786Z,95737.00
2024-02-04T17:24:24.761Z,95733.00
2024-02-04T17:25:24.903Z,95741.00
2024-02-04T17:26:24.747Z,95737.00
2024-02-04T17:27:24.817Z,95737.00
2024-02-04T17:28:24.781Z,95737.00
2024-02-04T17:29:24.725Z,95743.00
2024-02-04T17:30:24.912Z,95739.00
2024-02-04T17:31:24.727Z,95732.00
2024-02-04T17:32:24.723Z,95730.00
2024-02-04T17:33:24.870Z,95732.00
2024-02-04T17:34:24.937Z,95722.00
2024-02-04T17:35:24.653Z,95724.00
2024-02-04T17:36:24.806Z,95726.00
2024-02-04T17:37:24.779Z,95730.00
2024-02-04T17:38:24.726Z,95728.00
2024-02-04T17:39:24.671Z,95737.00
2024-02-04T17:40:24.842Z,95735.00
2024-02-04T17:41:24.920Z,95739.00
2024-02-04T17:42:24.899Z,95741.00
2024-02-04T17:43:24.834Z,95741.00
2024-02-04T17:44:24.746Z,95735.00
2024-02-04T17:45:25.785Z,95730.00
2024-02-04T17:46:24.733Z,95730.00
2024-02-04T17:47:24.701Z,95735.00
2024-02-04T17:48:24.806Z,95737.00
2024-02-04T17:49:24.722Z,95741.00
2024-02-04T17:50:27.068Z,95739.00
2024-02-04T17:51:24.606Z,95737.00
2024-02-04T17:52:27.526Z,95737.00
2024-02-04T17:53:24.579Z,95735.00
2024-02-04T17:54:24.582Z,95724.00
2024-02-04T17:55:24.626Z,95720.00
2024-02-04T17:56:24.584Z,95728.00
2024-02-04T17:57:24.788Z,95732.00
2024-02-04T17:58:24.592Z,95728.00
2024-02-04T17:59:24.650Z,95728.00
2024-02-04T18:00:24.626Z,95720.00
2024-02-04T18:01:24.700Z,95726.00
2024-02-04T18:02:33.904Z,95735.00
2024-02-04T18:03:25.554Z,95735.00
2024-02-04T18:04:24.797Z,95733.00
2024-02-04T18:05:26.057Z,95732.00
2024-02-04T18:06:24.498Z,95730.00
2024-02-04T18:07:24.687Z,95733.00
2024-02-04T18:08:25.490Z,95728.00
2024-02-04T18:09:24.468Z,95739.00
2024-02-04T18:10:24.513Z,95732.00
2024-02-04T18:11:24.482Z,95728.00
2024-02-04T18:12:24.499Z,95730.00
2024-02-04T18:13:24.521Z,95720.00
2024-02-04T18:14:24.611Z,95735.00
2024-02-04T18:15:24.434Z,95722.00
2024-02-04T18:16:24.425Z,95730.00
2024-02-04T18:17:24.402Z,95732.00
2024-02-04T18:18:24.519Z,95730.00
2024-02-04T18:19:25.198Z,95722.00
2024-02-04T18:20:24.433Z,95716.00
2024-02-04T18:21:24.612Z,95720.00
2024-02-04T18:22:24.398Z,95720.00
2024-02-04T18:23:24.400Z,95722.00
2024-02-04T18:24:24.491Z,95728.00
2024-02-04T18:25:24.517Z,95730.00
2024-02-04T18:26:24.522Z,95728.00
2024-02-04T18:27:24.615Z,95728.00
2024-02-04T18:28:24.628Z,95726.00
2024-02-04T18:29:24.636Z,95724.00
2024-02-04T18:30:24.866Z,95718.00
2024-02-04T18:31:24.794Z,95730.00
2024-02-04T18:32:25.160Z,95724.00
2024-02-04T18:33:24.865Z,95712.00
2024-02-04T18:34:25.220Z,95710.00
2024-02-04T18:35:24.986Z,95704.00
2024-02-04T18:36:25.011Z,95704.00